Latest Coastal Weather Observations for Cape Bruny AWS

IDT60701

Issued at 1:32 pm EST Saturday 30 July 2016 (issued every 10 minutes, with the page automatically refreshed every 10 minutes)

About coastal observations | Map of coastal stations | Coastal observations for TAS | Marine services | Other Formats
Station Details ID: 094198 Name: CAPE BRUNY (CAPE BRUNY) Lat: -43.49 Lon: 147.14 Height: 59.7 m
Data from the previous 72 hours. | See also: Recent months at Cape Bruny AWS
Date/Time
EST
Temp
°C
Wind Pressure Rain since
9am
mm
Weather Cloud Vis
km
Sea
Height
m
Swell
Dir  Spd
kts
Gust
kts
hPa Trend Height
m
Period
s
Dir
30/01:30pm 9.8 N 8 11 1013.0 - 0.0 - - - - - - -
30/01:00pm 9.4 N 9 13 1013.7 - 0.0 - - - - - - -
30/12:30pm 9.8 N 9 14 1014.4 - 0.0 - - - - - - -
30/12:00pm 10.0 N 8 13 1015.3 - 0.0 - - - - - - -
30/11:30am 9.8 NNW 9 12 1015.9 - 0.0 - - - - - - -
30/11:00am 9.0 NNW 11 14 1016.4 - 0.0 - - - - - - -
30/10:30am 8.9 NW 9 14 1016.7 - 0.0 - - - - - - -
30/10:00am 8.3 NNW 10 14 1016.8 - 0.0 - - - - - - -
30/09:30am 8.1 NNW 9 11 1016.9 - 0.0 - - - - - - -
30/09:00am 7.8 NNW 7 11 1017.2 - 4.4 - - - - - - -
30/08:30am 7.7 NW 10 15 1017.4 - 4.4 - - - - - - -
30/08:00am 7.5 NW 11 14 1017.2 - 4.4 - - - - - - -
30/07:30am 7.0 NW 12 15 1017.0 - 4.4 - - - - - - -
30/07:00am 7.4 WNW 13 18 1016.8 - 4.4 - - - - - - -
30/06:30am 7.4 WNW 12 15 1016.6 - 4.4 - - - - - - -
30/06:00am 7.7 WNW 13 16 1016.6 - 4.4 - - - - - - -
30/05:30am 7.8 NW 14 19 1016.6 - 4.4 - - - - - - -
30/05:00am 7.8 WNW 13 18 1016.3 - 4.4 - - - - - - -
30/04:30am 7.9 WNW 11 15 1016.3 - 4.4 - - - - - - -
30/04:00am 8.1 W 17 21 1016.3 - 4.4 - - - - - - -
30/03:30am 8.0 W 17 21 1016.2 - 4.4 - - - - - - -
30/03:00am 8.1 W 18 24 1016.1 - 4.4 - - - - - - -
30/02:30am 8.3 W 20 25 1016.0 - 4.4 - - - - - - -
30/02:00am 8.4 W 18 25 1016.0 - 4.4 - - - - - - -
30/01:30am 7.9 W 15 21 1016.0 - 4.4 - - - - - - -
30/01:16am 7.9 W 17 27 1016.0 - 4.4 - - - - - - -
30/01:00am 8.2 W 19 27 1016.0 - 4.4 - - - - - - -
30/12:46am 8.1 W 23 33 1015.8 - 4.4 - - - - - - -
30/12:30am 8.1 W 21 29 1015.7 - 4.4 - - - - - - -
30/12:00am 7.9 W 20 24 1015.5 - 4.4 - - - - - - -
 
Date/Time
EST
Temp
°C
Wind Pressure Rain since
9am
mm
Weather Cloud Vis
km
Sea
Height
m
Swell
Dir  Spd
kts
Gust
kts
hPa Trend Height
m
Period
s
Dir
29/11:30pm 8.5 W 26 31 1014.9 - 4.4 - - - - - - -
29/11:01pm 8.4 W 25 35 1014.6 - 4.4 - - - - - - -
29/11:00pm 8.5 W 26 35 1014.6 - 4.4 - - - - - - -
29/10:41pm 8.7 WSW 26 36 1014.2 - 4.4 - - - - - - -
29/10:30pm 8.3 WSW 24 32 1014.2 - 4.4 - - - - - - -
29/10:15pm 8.1 WSW 27 37 1014.2 - 4.4 - - - - - - -
29/10:00pm 8.6 WSW 25 34 1013.7 - 4.4 - - - - - - -
29/09:39pm 8.5 W 23 34 1013.4 - 4.4 - - - - - - -
29/09:30pm 8.1 W 23 30 1013.4 - 4.4 - - - - - - -
29/09:00pm 7.3 W 31 44 1013.0 - 4.4 - - - - - - -
29/08:33pm 8.4 W 28 38 1012.6 - 4.4 - - - - - - -
29/08:30pm 8.4 WSW 30 38 1012.4 - 4.4 - - - - - - -
29/08:05pm 8.6 WSW 30 40 1012.0 - 4.4 - - - - - - -
29/08:00pm 8.8 WSW 32 40 1011.8 - 4.4 - - - - - - -
29/07:42pm 8.2 WSW 24 37 1011.4 - 4.4 - - - - - - -
29/07:30pm 7.9 W 26 32 1011.4 - 4.4 - - - - - - -
29/07:04pm 7.1 W 31 41 1010.6 - 4.4 - - - - - - -
29/07:00pm 6.8 WSW 32 41 1010.5 - 4.4 - - - - - - -
29/06:56pm 7.3 WSW 31 40 1010.6 - 4.4 - - - - - - -
29/06:36pm 8.2 W 25 35 1010.2 - 4.4 - - - - - - -
29/06:30pm 8.0 W 26 35 1010.0 - 4.4 - - - - - - -
29/06:00pm 7.1 WSW 30 43 1009.9 - 4.2 - - - - - - -
29/05:30pm 8.2 WSW 31 41 1008.8 - 4.2 - - - - - - -
29/05:00pm 8.2 W 29 40 1007.8 - 4.2 - - - - - - -
29/04:57pm 8.4 W 27 37 1007.8 - 4.2 - - - - - - -
29/04:50pm 8.2 W 28 41 1007.7 - 4.2 - - - - - - -
29/04:43pm 8.1 WSW 33 45 1007.5 - 4.2 - - - - - - -
29/04:39pm 7.8 WSW 32 45 1007.4 - 4.2 - - - - - - -
29/04:37pm 8.3 WSW 29 44 1007.5 - 4.0 - - - - - - -
29/04:30pm 8.9 WSW 27 35 1007.2 - 4.0 - - - - - - -
29/04:08pm 9.0 WSW 33 43 1006.5 - 4.0 - - - - - - -
29/04:00pm 8.9 WSW 34 43 1006.2 - 4.0 - - - - - - -
29/03:41pm 8.8 WSW 31 41 1006.0 - 4.0 - - - - - - -
29/03:30pm 9.1 WSW 32 43 1005.6 - 3.8 - - - - - - -
29/03:12pm 8.6 W 24 35 1005.5 - 3.6 - - - - - - -
29/03:00pm 8.6 W 25 34 1005.0 - 3.2 Rain - - - - - -
29/02:33pm 9.0 W 27 37 1004.4 - 2.2 - - - - - - -
29/02:30pm 9.2 W 28 37 1004.3 - 2.2 - - - - - - -
29/02:00pm 8.4 W 31 41 1003.8 - 1.8 - - - - - - -
29/01:42pm 9.3 W 26 51 1004.0 - 1.0 - - - - - - -
29/01:41pm 10.0 W 24 36 1004.0 - 0.8 - - - - - - -
29/01:30pm 9.8 WNW 22 31 1003.5 - 0.8 - - - - - - -
29/01:02pm 11.8 WNW 23 33 1002.9 - 0.0 - - - - - - -
29/01:00pm 12.2 WNW 23 31 1002.9 - 0.0 - - - - - - -
29/12:31pm 12.7 WNW 23 33 1002.9 - 0.0 - - - - - - -
29/12:30pm 12.6 WNW 24 33 1003.0 - 0.0 - - - - - - -
29/12:00pm 12.6 WNW 22 27 1003.3 - 0.0 - - - - - - -
29/11:30am 11.5 WNW 20 29 1004.0 - 0.0 - - - - - - -
29/11:00am 12.0 WNW 24 35 1004.6 - 0.0 - - - - - - -
29/10:30am 11.7 WNW 22 32 1004.4 - 0.0 - - - - - - -
29/10:23am 11.7 WNW 21 32 1004.4 - 0.0 - - - - - - -
29/10:00am 11.3 NW 19 26 1004.7 - 0.0 - - - - - - -
29/09:30am 10.6 WNW 10 21 1005.4 - 0.0 - - - - - - -
29/09:00am 10.8 NW 11 17 1005.5 - 0.0 - - - - - - -
29/08:39am 11.0 WNW 16 26 1005.2 - 0.0 - - - - - - -
29/08:30am 11.2 WNW 18 26 1005.2 - 0.0 - - - - - - -
29/08:14am 11.1 NW 18 28 1005.2 - 0.0 - - - - - - -
29/08:00am 11.0 WNW 18 25 1005.2 - 0.0 - - - - - - -
29/07:30am 10.9 NW 19 28 1005.3 - 0.0 - - - - - - -
29/07:25am 10.9 NW 18 28 1005.3 - 0.0 - - - - - - -
29/07:00am 10.7 WNW 17 25 1005.8 - 0.0 - - - - - - -
29/06:30am 10.6 NW 14 17 1005.9 - 0.0 - - - - - - -
29/06:00am 10.7 NW 17 24 1005.9 - 0.0 - - - - - - -
29/05:30am 10.8 NW 15 21 1005.8 - 0.0 - - - - - - -
29/05:00am 10.6 NW 16 25 1005.5 - 0.0 - - - - - - -
29/04:53am 10.4 NW 15 22 1005.7 - 0.0 - - - - - - -
29/04:30am 10.9 WNW 20 31 1006.0 - 0.0 - - - - - - -
29/04:25am 10.9 WNW 19 31 1005.8 - 0.0 - - - - - - -
29/04:00am 10.5 WNW 19 27 1006.2 - 0.0 - - - - - - -
29/03:58am 10.5 WNW 19 29 1006.2 - 0.0 - - - - - - -
29/03:30am 10.7 WNW 13 20 1006.4 - 0.0 - - - - - - -
29/03:00am 10.7 NW 14 21 1006.5 - 0.0 - - - - - - -
29/02:49am 10.8 NW 18 29 1006.5 - 0.0 - - - - - - -
29/02:30am 10.7 NW 15 21 1006.7 - 0.0 - - - - - - -
29/02:00am 10.8 NW 17 24 1007.0 - 0.0 - - - - - - -
29/01:48am 10.7 WNW 15 25 1006.9 - 0.0 - - - - - - -
29/01:30am 10.4 WNW 14 19 1007.3 - 0.0 - - - - - - -
29/01:01am 10.5 WNW 19 29 1007.4 - 0.0 - - - - - - -
29/01:00am 10.5 WNW 20 29 1007.4 - 0.0 - - - - - - -
29/12:43am 10.7 WNW 14 25 1007.6 - 0.0 - - - - - - -
29/12:39am 10.6 NW 12 25 1007.5 - 0.0 - - - - - - -
29/12:30am 10.1 NW 10 19 1007.9 - 0.0 - - - - - - -
29/12:24am 10.3 WNW 16 23 1007.7 - 0.0 - - - - - - -
29/12:00am 10.6 WNW 20 27 1007.9 - 0.0 - - - - - - -
 
Date/Time
EST
Temp
°C
Wind Pressure Rain since
9am
mm
Weather Cloud Vis
km
Sea
Height
m
Swell
Dir  Spd
kts
Gust
kts
hPa Trend Height
m
Period
s
Dir
28/11:55pm 10.7 WNW 15 26 1008.0 - 0.0 - - - - - - -
28/11:30pm 10.3 NW 15 21 1008.4 - 0.0 - - - - - - -
28/11:00pm 10.6 WNW 17 26 1008.6 - 0.0 - - - - - - -
28/10:52pm 10.5 WNW 15 26 1008.6 - 0.0 - - - - - - -
28/10:30pm 10.4 WNW 13 19 1008.8 - 0.0 - - - - - - -
28/10:00pm 10.5 NW 17 28 1008.9 - 0.0 - - - - - - -
28/09:59pm 10.6 WNW 18 28 1009.0 - 0.0 - - - - - - -
28/09:30pm 10.3 WNW 20 27 1009.1 - 0.0 - - - - - - -
28/09:00pm 10.5 WNW 19 29 1009.0 - 0.0 - - - - - - -
28/08:56pm 10.6 WNW 19 29 1009.0 - 0.0 - - - - - - -
28/08:30pm 10.5 WNW 23 28 1009.1 - 0.0 - - - - - - -
28/08:00pm 10.5 WNW 21 27 1009.0 - 0.0 - - - - - - -
28/07:30pm 10.7 WNW 19 27 1009.3 - 0.0 - - - - - - -
28/07:00pm 10.9 WNW 19 26 1009.1 - 0.0 - - - - - - -
28/06:30pm 10.7 NW 21 27 1008.9 - 0.0 - - - - - - -
28/06:14pm 10.9 WNW 18 29 1008.8 - 0.0 - - - - - - -
28/06:00pm 10.9 WNW 16 23 1008.5 - 0.0 - - - - - - -
28/05:30pm 10.8 WNW 13 20 1008.4 - 0.0 - - - - - - -
28/05:00pm 11.0 WNW 13 20 1008.0 - 0.0 - - - - - - -
28/04:30pm 11.1 W 18 23 1007.6 - 0.0 - - - - - - -
28/04:00pm 11.6 W 21 27 1006.9 - 0.0 - - - - - - -
28/03:30pm 12.1 W 25 29 1006.7 - 0.0 - - - - - - -
28/03:00pm 12.3 W 22 27 1006.7 - 0.0 - - - - - - -
28/02:30pm 12.4 WNW 22 27 1006.3 - 0.0 - - - - - - -
28/02:00pm 12.7 W 20 28 1006.1 - 0.0 - - - - - - -
28/01:36pm 12.4 W 19 29 1006.0 - 0.0 - - - - - - -
28/01:30pm 12.7 W 24 31 1006.1 - 0.0 - - - - - - -
28/01:13pm 12.6 W 19 29 1005.9 - 0.0 - - - - - - -
28/01:00pm 12.4 W 21 30 1005.9 - 0.0 - - - - - - -
28/12:51pm 12.3 W 29 39 1006.0 - 0.0 - - - - - - -
28/12:46pm 12.5 W 27 39 1005.8 - 0.0 - - - - - - -
28/12:44pm 12.4 W 24 35 1005.9 - 0.0 - - - - - - -
28/12:30pm 12.0 W 20 28 1006.0 - 0.0 - - - - - - -
28/12:00pm 12.3 W 20 26 1006.5 - 0.0 - - - - - - -
28/11:37am 12.3 W 21 32 1006.4 - 0.0 - - - - - - -
28/11:30am 11.9 W 18 25 1006.6 - 0.0 - - - - - - -
28/11:11am 11.3 W 18 28 1006.5 - 0.0 - - - - - - -
28/11:00am 11.8 W 24 30 1006.5 - 0.0 - - - - - - -
28/10:47am 11.1 W 19 29 1006.4 - 0.0 - - - - - - -
28/10:30am 11.3 W 21 26 1006.3 - 0.0 - - - - - - -
28/10:00am 10.6 W 20 24 1006.1 - 0.0 - - - - - - -
28/09:30am 10.5 W 19 24 1005.8 - 0.0 - - - - - - -
28/09:14am 10.8 W 22 32 1005.8 - 0.0 - - - - - - -
28/09:00am 10.4 WNW 20 26 1005.4 - 3.6 - - - - - - -
28/08:30am 10.0 WNW 21 26 1005.3 - 3.6 - - - - - - -
28/08:00am 9.4 NW 18 25 1005.3 - 3.6 - - - - - - -
28/07:30am 8.6 NNW 13 16 1005.2 - 3.0 - - - - - - -
28/07:00am 8.6 NW 13 18 1005.0 - 3.0 - - - - - - -
28/06:30am 8.5 NW 15 19 1005.0 - 2.8 - - - - - - -
28/06:00am 8.8 WNW 17 21 1005.3 - 2.4 Rain - - - - - -
28/05:50am 9.1 WNW 20 30 1005.1 - 2.2 - - - - - - -
28/05:30am 10.0 WNW 19 27 1005.0 - 2.2 - - - - - - -
28/05:03am 10.0 WNW 15 25 1005.2 - 2.2 - - - - - - -
28/05:00am 10.2 WNW 17 25 1005.2 - 2.2 - - - - - - -
28/04:34am 9.9 WNW 20 30 1005.5 - 2.2 - - - - - - -
28/04:30am 9.8 NW 20 29 1005.5 - 2.2 - - - - - - -
28/04:26am 9.9 NW 19 29 1005.6 - 2.2 - - - - - - -
28/04:00am 9.6 WNW 19 25 1005.9 - 2.2 - - - - - - -
28/03:30am 9.9 W 17 21 1006.2 - 2.2 - - - - - - -
28/03:20am 10.0 W 20 30 1006.0 - 2.2 - - - - - - -
28/03:13am 10.0 WNW 16 29 1006.2 - 2.2 - - - - - - -
28/03:00am 9.9 NW 12 17 1006.2 - 2.2 - - - - - - -
28/02:50am 9.8 WNW 10 14 1006.3 - 2.2 - - - - - - -
28/02:30am 10.7 W 25 35 1006.0 - 2.2 - - - - - - -
28/02:03am 11.0 W 25 35 1005.7 - 2.2 - - - - - - -
28/02:00am 10.7 W 24 31 1005.8 - 2.2 - - - - - - -
28/01:34am 10.9 W 24 35 1005.5 - 2.2 - - - - - - -
28/01:30am 10.8 W 25 32 1005.4 - 2.2 - - - - - - -
28/01:18am 10.5 W 25 35 1005.3 - 2.2 - - - - - - -
28/01:00am 10.7 W 25 32 1005.0 - 2.2 - - - - - - -
28/12:45am 10.7 W 26 36 1004.9 - 2.2 - - - - - - -
28/12:30am 10.6 W 24 31 1004.6 - 2.2 - - - - - - -
28/12:14am 10.5 W 28 39 1004.3 - 2.2 - - - - - - -
28/12:00am 10.4 W 28 35 1004.3 - 2.2 - - - - - - -
 
Date/Time
EST
Temp
°C
Wind Pressure Rain since
9am
mm
Weather Cloud Vis
km
Sea
Height
m
Swell
Dir  Spd
kts
Gust
kts
hPa Trend Height
m
Period
s
Dir
27/11:39pm 10.4 W 30 42 1003.9 - 2.2 - - - - - - -
27/11:37pm 10.3 W 32 42 1003.9 - 2.2 - - - - - - -
27/11:30pm 10.6 W 35 42 1003.6 - 2.2 - - - - - - -
27/11:00pm 10.6 W 33 45 1003.6 - 2.2 - - - - - - -
27/10:30pm 10.3 W 32 43 1003.5 - 2.2 - - - - - - -
27/10:16pm 10.2 W 33 43 1003.1 - 2.2 - - - - - - -
27/10:00pm 10.3 W 33 42 1003.2 - 2.2 - - - - - - -
27/09:30pm 10.3 W 35 49 1002.5 - 2.2 - - - - - - -
27/09:00pm 10.4 W 35 48 1002.3 - 2.2 - - - - - - -
27/08:30pm 10.1 W 30 41 1001.9 - 2.2 - - - - - - -
27/08:00pm 9.8 W 31 41 1001.0 - 2.2 - - - - - - -
27/07:30pm 9.6 W 34 48 1000.5 - 2.2 - - - - - - -
27/07:00pm 9.5 W 40 54 999.8 - 2.2 - - - - - - -
27/06:54pm 9.5 W 38 53 999.3 - 2.2 - - - - - - -
27/06:30pm 9.3 W 32 43 999.1 - 2.2 - - - - - - -
27/06:00pm 9.9 W 41 56 997.7 - 0.8 Rain - - - - - -
27/05:58pm 9.8 W 43 57 997.2 - 0.6 - - - - - - -
27/05:53pm 10.2 W 48 65 996.7 - 0.4 - - - - - - -
27/05:46pm 10.9 WNW 34 65 996.5 - 0.4 - - - - - - -
27/05:44pm 10.3 WNW 27 57 997.6 - 0.4 - - - - - - -
27/05:43pm 9.0 NW 25 47 998.0 - 0.4 - - - - - - -
27/05:37pm 7.2 NW 22 37 997.5 - 0.4 - - - - - - -
27/05:30pm 6.6 NW 24 32 997.7 - 0.4 - - - - - - -
27/05:00pm 6.2 NW 22 32 998.5 - 0.4 - - - - - - -
27/04:48pm 6.2 NW 22 32 999.0 - 0.4 - - - - - - -
27/04:30pm 6.5 NW 25 33 999.1 - 0.4 - - - - - - -
27/04:08pm 6.7 NW 25 35 999.3 - 0.2 - - - - - - -
27/04:00pm 7.3 NW 23 30 999.6 - 0.2 - - - - - - -
27/03:30pm 7.7 WNW 20 31 1000.0 - 0.2 - - - - - - -
27/03:22pm 8.3 WNW 20 30 1000.0 - 0.2 - - - - - - -
27/03:00pm 8.2 WNW 24 33 999.9 - 0.2 - - - - - - -
27/02:38pm 7.4 WNW 26 36 1000.4 - 0.2 - - - - - - -
27/02:30pm 7.1 WNW 32 42 1000.6 - 0.2 - - - - - - -
27/02:01pm 7.5 WNW 29 39 1001.1 - 0.2 - - - - - - -
27/02:00pm 7.7 WNW 29 38 1001.2 - 0.2 - - - - - - -
27/01:42pm 7.8 WNW 25 35 1001.1 - 0.2 - - - - - - -

Other Formats:

Comma delimited format used in spreadsheet applications
http://www.bom.gov.au/fwo/IDT60701/IDT60701.95967.axf

JavaScript Object Notation format (JSON) in row-major order
http://www.bom.gov.au/fwo/IDT60701/IDT60701.95967.json